KBZN/BZN METAR and TAF weather

Enter ICAO airport designator
Station Type Date Time Source
KBZN METAR 2019/06/20 07:56 UTC NOAA

KBZN 200756Z AUTO 24003KT 10SM FEW110 09/01 A2988 RMK AO2 SLP094 T00890006


Station Type Date Time Source
KBZN Decoded METAR 2019/06/20 07:56 UTC NOAA

BOZEMAN GALLATIN FIELD, MT, United States (KBZN) 45-47N 111-09W 1361M
Jun 20, 2019 - 03:56 AM EDT / 2019.06.20 0756 UTC
Wind: from the WSW (240 degrees) at 3 MPH (3 KT):0
Visibility: 10 mile(s):0
Sky conditions: mostly clear
Temperature: 48.0 F (8.9 C)
Dew Point: 33.1 F (0.6 C)
Relative Humidity: 55%
Pressure (altimeter): 29.88 in. Hg (1011 hPa)
ob: KBZN 200756Z AUTO 24003KT 10SM FEW110 09/01 A2988 RMK AO2 SLP094 T00890006
cycle: 8

Station Type Date Time Source
KBZN TAF 2019/06/20 06:57 UTC NOAA

TAF KBZN 200554Z 2006/2112 VRB06KT P6SM BKN150
FM201200 VRB05KT P6SM SCT050 BKN080 PROB30 2018/2021 VRB30G45KT 4SM -TSRA BKN050CB
FM202100 31009KT P6SM -SHRA BKN040 PROB30 2021/2024 VRB30G45KT 4SM -TSRA BKN040CB
FM210000 31007KT P6SM SCT015 OVC080 PROB30 2100/2103 4SM -SHRA BKN015
FM210300 VRB06KT 5SM -RA SCT015 BKN070

Example: see airport list